Etusivu
METAR-TAF:

METAR-TAF

Lentoasemat :

Waterville Robert LaFleur Airport

Waterville, Maine, Yhdysvallat

Leveyspiiri: 44-32N, Pituuspiiri: 069-41W, korkeus merenpinnasta: 101 m

Tämänhetkinen sää

Tämä raportti tehtiin 43 minuuttia sitten, kello 02.56 UTC
Tuuli 13 kn pohjoisesta puuskistuen 19 kn:hen
Lämpötila 0°C
Kosteus 100%
Ilmanpaine 982 hPa
Näkyvyys: 1.2 km
Pilvistä 500 ft:n korkeudessa
heikkoa lumisadetta, utua

METAR: KWVL 100256Z AUTO 35013G19KT 3/4SM -SN BR OVC005 00/00 A2899 RMK AO2 CIG 003V007 SLP846 P0000 60002 T00000000 58033 FZRANO

Aika: 23:39 (03:39 UTC)


TAF: puuttuu

Säähavainnot ja -ennusteet yli 4000 lentoasemalta (METAR- ja TAF-raportit).

Käytössä olevat sääasemat on merkitty karttaan keltaisilla ja punaisilla pisteillä.

Aseta hiiri pisteen päälle nähdäksesi sääaseman nimen.

Klikkaa sitten nähdäksesi säähavainnot ja -ennusteet.

Kartan vaihtaminen: klikkaa mustalla rastilla varustettuja vihreitä pisteitä, niin voit zoomata sisään; viivalla varustettua vihreää pistettä, niin voit zoomata ulos tai vihreitä nuolia, niin pääset viereisille kartoille.


METAR-TAF: